sensor_id;sensor_type;location;lat;lon;timestamp;temperature;humidity
12726;DHT22;6427;49.754;6.106;2022-07-05T00:00:20;16.40;92.60
12726;DHT22;6427;49.754;6.106;2022-07-05T00:02:48;16.30;92.80
12726;DHT22;6427;49.754;6.106;2022-07-05T00:05:15;16.10;93.20
12726;DHT22;6427;49.754;6.106;2022-07-05T00:07:44;15.90;94.30
12726;DHT22;6427;49.754;6.106;2022-07-05T00:10:11;15.90;94.00
12726;DHT22;6427;49.754;6.106;2022-07-05T00:12:39;15.80;94.40
12726;DHT22;6427;49.754;6.106;2022-07-05T00:15:07;15.90;95.00
12726;DHT22;6427;49.754;6.106;2022-07-05T00:17:34;15.90;94.80
12726;DHT22;6427;49.754;6.106;2022-07-05T00:20:03;15.70;95.50
12726;DHT22;6427;49.754;6.106;2022-07-05T00:22:31;15.60;95.70
12726;DHT22;6427;49.754;6.106;2022-07-05T00:24:58;15.50;95.70
12726;DHT22;6427;49.754;6.106;2022-07-05T00:27:26;15.50;96.00
12726;DHT22;6427;49.754;6.106;2022-07-05T00:29:55;15.40;96.70
12726;DHT22;6427;49.754;6.106;2022-07-05T00:32:22;15.40;96.70
12726;DHT22;6427;49.754;6.106;2022-07-05T00:34:50;15.30;97.80
12726;DHT22;6427;49.754;6.106;2022-07-05T00:37:18;15.30;97.80
12726;DHT22;6427;49.754;6.106;2022-07-05T00:39:46;15.20;98.20
12726;DHT22;6427;49.754;6.106;2022-07-05T00:42:13;15.40;98.90
12726;DHT22;6427;49.754;6.106;2022-07-05T00:44:41;15.40;98.60
12726;DHT22;6427;49.754;6.106;2022-07-05T00:47:10;15.40;98.70
12726;DHT22;6427;49.754;6.106;2022-07-05T00:49:36;15.30;99.00
12726;DHT22;6427;49.754;6.106;2022-07-05T00:52:04;15.20;99.10
12726;DHT22;6427;49.754;6.106;2022-07-05T00:54:34;15.10;99.40
12726;DHT22;6427;49.754;6.106;2022-07-05T00:57:01;15.00;99.90
12726;DHT22;6427;49.754;6.106;2022-07-05T00:59:29;14.80;99.90
12726;DHT22;6427;49.754;6.106;2022-07-05T01:01:57;14.80;99.90
12726;DHT22;6427;49.754;6.106;2022-07-05T01:04:24;14.70;99.90
12726;DHT22;6427;49.754;6.106;2022-07-05T01:06:52;14.60;99.90
12726;DHT22;6427;49.754;6.106;2022-07-05T01:09:20;14.60;99.90
12726;DHT22;6427;49.754;6.106;2022-07-05T01:11:49;14.50;99.90
12726;DHT22;6427;49.754;6.106;2022-07-05T01:14:16;14.50;99.90
12726;DHT22;6427;49.754;6.106;2022-07-05T01:16:44;14.70;99.90
12726;DHT22;6427;49.754;6.106;2022-07-05T01:19:12;14.70;99.90
12726;DHT22;6427;49.754;6.106;2022-07-05T01:21:41;14.90;99.90
12726;DHT22;6427;49.754;6.106;2022-07-05T01:24:08;14.80;99.90
12726;DHT22;6427;49.754;6.106;2022-07-05T01:26:36;15.00;99.90
12726;DHT22;6427;49.754;6.106;2022-07-05T01:29:04;15.00;99.90
12726;DHT22;6427;49.754;6.106;2022-07-05T01:31:32;14.80;99.90
12726;DHT22;6427;49.754;6.106;2022-07-05T01:33:59;14.80;99.90
12726;DHT22;6427;49.754;6.106;2022-07-05T01:36:28;14.60;99.90
12726;DHT22;6427;49.754;6.106;2022-07-05T01:38:55;14.50;99.90
12726;DHT22;6427;49.754;6.106;2022-07-05T01:41:23;14.50;99.90
12726;DHT22;6427;49.754;6.106;2022-07-05T01:43:51;14.30;99.90
12726;DHT22;6427;49.754;6.106;2022-07-05T01:46:19;14.30;99.90
12726;DHT22;6427;49.754;6.106;2022-07-05T01:48:47;14.30;99.90
12726;DHT22;6427;49.754;6.106;2022-07-05T01:51:20;14.40;99.90
12726;DHT22;6427;49.754;6.106;2022-07-05T01:53:49;14.40;99.90
12726;DHT22;6427;49.754;6.106;2022-07-05T01:56:15;14.30;99.90
12726;DHT22;6427;49.754;6.106;2022-07-05T01:58:42;14.20;99.90
12726;DHT22;6427;49.754;6.106;2022-07-05T02:01:10;14.40;99.90
12726;DHT22;6427;49.754;6.106;2022-07-05T02:03:39;14.60;99.90
12726;DHT22;6427;49.754;6.106;2022-07-05T02:06:05;14.50;99.90
12726;DHT22;6427;49.754;6.106;2022-07-05T02:08:33;14.40;99.90
12726;DHT22;6427;49.754;6.106;2022-07-05T02:11:00;14.30;99.90
12726;DHT22;6427;49.754;6.106;2022-07-05T02:13:28;14.40;99.90
12726;DHT22;6427;49.754;6.106;2022-07-05T02:15:55;14.30;99.90
12726;DHT22;6427;49.754;6.106;2022-07-05T02:18:23;14.20;99.90
12726;DHT22;6427;49.754;6.106;2022-07-05T02:20:51;14.00;99.90
12726;DHT22;6427;49.754;6.106;2022-07-05T02:23:19;14.00;99.90
12726;DHT22;6427;49.754;6.106;2022-07-05T02:25:47;13.90;99.90
12726;DHT22;6427;49.754;6.106;2022-07-05T02:28:14;13.90;99.90
12726;DHT22;6427;49.754;6.106;2022-07-05T02:30:42;13.70;99.90
12726;DHT22;6427;49.754;6.106;2022-07-05T02:33:10;13.80;99.90
12726;DHT22;6427;49.754;6.106;2022-07-05T02:35:38;13.70;99.90
12726;DHT22;6427;49.754;6.106;2022-07-05T02:38:05;13.70;99.90
12726;DHT22;6427;49.754;6.106;2022-07-05T02:40:34;13.60;99.90
12726;DHT22;6427;49.754;6.106;2022-07-05T02:43:01;13.60;99.90
12726;DHT22;6427;49.754;6.106;2022-07-05T02:45:29;13.50;99.90
12726;DHT22;6427;49.754;6.106;2022-07-05T02:47:57;13.50;99.90
12726;DHT22;6427;49.754;6.106;2022-07-05T02:50:25;13.40;99.90
12726;DHT22;6427;49.754;6.106;2022-07-05T02:52:52;13.40;99.90
12726;DHT22;6427;49.754;6.106;2022-07-05T02:55:20;13.40;99.90
12726;DHT22;6427;49.754;6.106;2022-07-05T02:57:48;13.60;99.90
12726;DHT22;6427;49.754;6.106;2022-07-05T03:00:15;13.60;99.90
12726;DHT22;6427;49.754;6.106;2022-07-05T03:02:44;13.40;99.90
12726;DHT22;6427;49.754;6.106;2022-07-05T03:05:11;13.40;99.90
12726;DHT22;6427;49.754;6.106;2022-07-05T03:07:39;13.30;99.90
12726;DHT22;6427;49.754;6.106;2022-07-05T03:10:06;13.30;99.90
12726;DHT22;6427;49.754;6.106;2022-07-05T03:12:34;13.20;99.90
12726;DHT22;6427;49.754;6.106;2022-07-05T03:15:01;13.20;99.90
12726;DHT22;6427;49.754;6.106;2022-07-05T03:17:29;13.10;99.90
12726;DHT22;6427;49.754;6.106;2022-07-05T03:19:57;13.30;99.90
12726;DHT22;6427;49.754;6.106;2022-07-05T03:22:25;13.30;99.90
12726;DHT22;6427;49.754;6.106;2022-07-05T03:24:53;13.30;99.90
12726;DHT22;6427;49.754;6.106;2022-07-05T03:27:20;13.20;99.90
12726;DHT22;6427;49.754;6.106;2022-07-05T03:29:48;13.30;99.90
12726;DHT22;6427;49.754;6.106;2022-07-05T03:32:16;13.40;99.90
12726;DHT22;6427;49.754;6.106;2022-07-05T03:34:44;13.40;99.90
12726;DHT22;6427;49.754;6.106;2022-07-05T03:37:11;13.40;99.90
12726;DHT22;6427;49.754;6.106;2022-07-05T03:39:39;13.30;99.90
12726;DHT22;6427;49.754;6.106;2022-07-05T03:42:07;13.10;99.90
12726;DHT22;6427;49.754;6.106;2022-07-05T03:44:35;13.00;99.90
12726;DHT22;6427;49.754;6.106;2022-07-05T03:47:03;13.00;99.90
12726;DHT22;6427;49.754;6.106;2022-07-05T03:49:31;12.90;99.90
12726;DHT22;6427;49.754;6.106;2022-07-05T03:51:59;12.90;99.90
12726;DHT22;6427;49.754;6.106;2022-07-05T03:54:27;13.00;99.90
12726;DHT22;6427;49.754;6.106;2022-07-05T03:56:55;13.00;99.90
12726;DHT22;6427;49.754;6.106;2022-07-05T03:59:22;13.00;99.90
12726;DHT22;6427;49.754;6.106;2022-07-05T04:01:51;12.90;99.90
12726;DHT22;6427;49.754;6.106;2022-07-05T04:04:18;12.90;99.90
12726;DHT22;6427;49.754;6.106;2022-07-05T04:06:46;12.80;99.90
12726;DHT22;6427;49.754;6.106;2022-07-05T04:09:14;12.70;99.90
12726;DHT22;6427;49.754;6.106;2022-07-05T04:11:42;12.60;99.90
12726;DHT22;6427;49.754;6.106;2022-07-05T04:14:09;12.60;99.90
12726;DHT22;6427;49.754;6.106;2022-07-05T04:16:38;12.50;99.90
12726;DHT22;6427;49.754;6.106;2022-07-05T04:19:05;12.50;99.90
12726;DHT22;6427;49.754;6.106;2022-07-05T04:21:33;12.50;99.90
12726;DHT22;6427;49.754;6.106;2022-07-05T04:24:01;12.50;99.90
12726;DHT22;6427;49.754;6.106;2022-07-05T04:26:29;12.50;99.90
12726;DHT22;6427;49.754;6.106;2022-07-05T04:28:56;12.50;99.90
12726;DHT22;6427;49.754;6.106;2022-07-05T04:31:24;12.60;99.90
12726;DHT22;6427;49.754;6.106;2022-07-05T04:33:52;12.70;99.90
12726;DHT22;6427;49.754;6.106;2022-07-05T04:36:19;12.70;99.90
12726;DHT22;6427;49.754;6.106;2022-07-05T04:38:48;12.80;99.90
12726;DHT22;6427;49.754;6.106;2022-07-05T04:41:16;12.90;99.90
12726;DHT22;6427;49.754;6.106;2022-07-05T04:43:44;12.80;99.90
12726;DHT22;6427;49.754;6.106;2022-07-05T04:46:12;12.90;99.90
12726;DHT22;6427;49.754;6.106;2022-07-05T04:48:41;12.90;99.90
12726;DHT22;6427;49.754;6.106;2022-07-05T04:51:08;13.00;99.90
12726;DHT22;6427;49.754;6.106;2022-07-05T04:53:36;13.00;99.90
12726;DHT22;6427;49.754;6.106;2022-07-05T04:56:05;13.00;99.90
12726;DHT22;6427;49.754;6.106;2022-07-05T04:58:32;13.00;99.90
12726;DHT22;6427;49.754;6.106;2022-07-05T05:01:00;13.10;99.90
12726;DHT22;6427;49.754;6.106;2022-07-05T05:03:28;13.40;99.90
12726;DHT22;6427;49.754;6.106;2022-07-05T05:05:56;13.40;99.90
12726;DHT22;6427;49.754;6.106;2022-07-05T05:08:23;13.50;99.90
12726;DHT22;6427;49.754;6.106;2022-07-05T05:10:51;13.50;99.90
12726;DHT22;6427;49.754;6.106;2022-07-05T05:13:19;13.60;99.90
12726;DHT22;6427;49.754;6.106;2022-07-05T05:15:47;13.90;99.90
12726;DHT22;6427;49.754;6.106;2022-07-05T05:18:14;13.80;99.90
12726;DHT22;6427;49.754;6.106;2022-07-05T05:20:42;14.10;99.90
12726;DHT22;6427;49.754;6.106;2022-07-05T05:23:10;14.40;99.90
12726;DHT22;6427;49.754;6.106;2022-07-05T05:25:38;14.40;99.90
12726;DHT22;6427;49.754;6.106;2022-07-05T05:28:06;14.40;99.90
12726;DHT22;6427;49.754;6.106;2022-07-05T05:30:34;14.40;99.90
12726;DHT22;6427;49.754;6.106;2022-07-05T05:33:02;14.40;99.90
12726;DHT22;6427;49.754;6.106;2022-07-05T05:35:30;14.40;99.90
12726;DHT22;6427;49.754;6.106;2022-07-05T05:37:58;14.40;99.90
12726;DHT22;6427;49.754;6.106;2022-07-05T05:40:26;15.00;99.90
12726;DHT22;6427;49.754;6.106;2022-07-05T05:42:54;15.00;99.90
12726;DHT22;6427;49.754;6.106;2022-07-05T05:45:22;15.00;99.90
12726;DHT22;6427;49.754;6.106;2022-07-05T05:47:57;15.00;99.90
12726;DHT22;6427;49.754;6.106;2022-07-05T05:50:25;15.00;99.90
12726;DHT22;6427;49.754;6.106;2022-07-05T05:52:52;15.00;99.90
12726;DHT22;6427;49.754;6.106;2022-07-05T05:55:20;15.10;99.90
12726;DHT22;6427;49.754;6.106;2022-07-05T05:57:47;15.10;99.90
12726;DHT22;6427;49.754;6.106;2022-07-05T06:00:15;15.20;99.90
12726;DHT22;6427;49.754;6.106;2022-07-05T06:02:44;15.30;99.90
12726;DHT22;6427;49.754;6.106;2022-07-05T06:05:11;15.30;99.90
12726;DHT22;6427;49.754;6.106;2022-07-05T06:07:46;15.70;99.90
12726;DHT22;6427;49.754;6.106;2022-07-05T06:10:10;15.60;99.90
12726;DHT22;6427;49.754;6.106;2022-07-05T06:12:38;15.70;99.90
12726;DHT22;6427;49.754;6.106;2022-07-05T06:15:06;15.90;99.90
12726;DHT22;6427;49.754;6.106;2022-07-05T06:17:37;15.80;99.90
12726;DHT22;6427;49.754;6.106;2022-07-05T06:20:08;16.00;99.90
12726;DHT22;6427;49.754;6.106;2022-07-05T06:22:32;16.00;99.90
12726;DHT22;6427;49.754;6.106;2022-07-05T06:25:01;16.20;99.90
12726;DHT22;6427;49.754;6.106;2022-07-05T06:27:29;16.20;99.90
12726;DHT22;6427;49.754;6.106;2022-07-05T06:29:56;16.20;99.90
12726;DHT22;6427;49.754;6.106;2022-07-05T06:32:24;16.30;99.90
12726;DHT22;6427;49.754;6.106;2022-07-05T06:34:52;16.40;99.90
12726;DHT22;6427;49.754;6.106;2022-07-05T06:37:19;16.50;99.90
12726;DHT22;6427;49.754;6.106;2022-07-05T06:39:48;16.70;99.90
12726;DHT22;6427;49.754;6.106;2022-07-05T06:42:15;16.70;99.90
12726;DHT22;6427;49.754;6.106;2022-07-05T06:44:44;16.80;99.90
12726;DHT22;6427;49.754;6.106;2022-07-05T06:47:11;16.80;99.90
12726;DHT22;6427;49.754;6.106;2022-07-05T06:49:39;17.00;99.90
12726;DHT22;6427;49.754;6.106;2022-07-05T06:52:07;16.90;99.90
12726;DHT22;6427;49.754;6.106;2022-07-05T06:54:35;17.10;99.90
12726;DHT22;6427;49.754;6.106;2022-07-05T06:57:04;17.20;99.90
12726;DHT22;6427;49.754;6.106;2022-07-05T06:59:31;17.10;99.90
12726;DHT22;6427;49.754;6.106;2022-07-05T07:01:59;17.30;99.90
12726;DHT22;6427;49.754;6.106;2022-07-05T07:04:27;17.30;99.90
12726;DHT22;6427;49.754;6.106;2022-07-05T07:06:54;17.40;99.90
12726;DHT22;6427;49.754;6.106;2022-07-05T07:09:22;17.50;99.90
12726;DHT22;6427;49.754;6.106;2022-07-05T07:11:49;17.60;99.90
12726;DHT22;6427;49.754;6.106;2022-07-05T07:14:17;17.70;99.90
12726;DHT22;6427;49.754;6.106;2022-07-05T07:16:45;18.10;99.90
12726;DHT22;6427;49.754;6.106;2022-07-05T07:19:14;18.20;99.90
12726;DHT22;6427;49.754;6.106;2022-07-05T07:21:41;18.20;99.90
12726;DHT22;6427;49.754;6.106;2022-07-05T07:24:10;18.50;99.90
12726;DHT22;6427;49.754;6.106;2022-07-05T07:26:37;18.50;99.90
12726;DHT22;6427;49.754;6.106;2022-07-05T07:29:23;18.60;99.90
12726;DHT22;6427;49.754;6.106;2022-07-05T07:31:50;18.70;99.90
12726;DHT22;6427;49.754;6.106;2022-07-05T07:34:18;18.70;99.90
12726;DHT22;6427;49.754;6.106;2022-07-05T07:36:45;18.80;99.90
12726;DHT22;6427;49.754;6.106;2022-07-05T07:39:13;18.90;99.90
12726;DHT22;6427;49.754;6.106;2022-07-05T07:41:41;19.10;99.90
12726;DHT22;6427;49.754;6.106;2022-07-05T07:44:10;19.20;99.90
12726;DHT22;6427;49.754;6.106;2022-07-05T07:46:37;19.10;99.90
12726;DHT22;6427;49.754;6.106;2022-07-05T07:49:05;19.20;99.90
12726;DHT22;6427;49.754;6.106;2022-07-05T07:51:33;19.40;99.90
12726;DHT22;6427;49.754;6.106;2022-07-05T07:54:01;19.40;99.90
12726;DHT22;6427;49.754;6.106;2022-07-05T07:56:31;19.60;99.70
12726;DHT22;6427;49.754;6.106;2022-07-05T07:58:59;19.70;99.30
12726;DHT22;6427;49.754;6.106;2022-07-05T08:01:26;19.70;98.30
12726;DHT22;6427;49.754;6.106;2022-07-05T08:03:54;19.80;97.60
12726;DHT22;6427;49.754;6.106;2022-07-05T08:06:22;20.00;97.30
12726;DHT22;6427;49.754;6.106;2022-07-05T08:08:49;20.30;96.70
12726;DHT22;6427;49.754;6.106;2022-07-05T08:11:17;20.60;95.80
12726;DHT22;6427;49.754;6.106;2022-07-05T08:13:44;20.70;95.40
12726;DHT22;6427;49.754;6.106;2022-07-05T08:16:13;20.80;94.90
12726;DHT22;6427;49.754;6.106;2022-07-05T08:18:40;20.80;94.90
12726;DHT22;6427;49.754;6.106;2022-07-05T08:21:26;20.90;94.70
12726;DHT22;6427;49.754;6.106;2022-07-05T08:24:05;21.10;93.80
12726;DHT22;6427;49.754;6.106;2022-07-05T08:26:30;21.20;93.50
12726;DHT22;6427;49.754;6.106;2022-07-05T08:28:58;21.20;93.10
12726;DHT22;6427;49.754;6.106;2022-07-05T08:31:32;21.30;93.10
12726;DHT22;6427;49.754;6.106;2022-07-05T08:33:58;21.30;92.80
12726;DHT22;6427;49.754;6.106;2022-07-05T08:36:26;21.40;92.30
12726;DHT22;6427;49.754;6.106;2022-07-05T08:38:53;21.50;92.00
12726;DHT22;6427;49.754;6.106;2022-07-05T08:41:21;21.60;92.00
12726;DHT22;6427;49.754;6.106;2022-07-05T08:43:49;21.60;91.10
12726;DHT22;6427;49.754;6.106;2022-07-05T08:46:17;21.90;90.20
12726;DHT22;6427;49.754;6.106;2022-07-05T08:48:47;21.90;90.20
12726;DHT22;6427;49.754;6.106;2022-07-05T08:51:14;22.30;90.10
12726;DHT22;6427;49.754;6.106;2022-07-05T08:53:41;22.20;89.50
12726;DHT22;6427;49.754;6.106;2022-07-05T08:56:08;22.30;88.80
12726;DHT22;6427;49.754;6.106;2022-07-05T08:58:36;22.40;88.10
12726;DHT22;6427;49.754;6.106;2022-07-05T09:01:04;22.60;85.80
12726;DHT22;6427;49.754;6.106;2022-07-05T09:03:47;22.70;83.10
12726;DHT22;6427;49.754;6.106;2022-07-05T09:06:13;22.70;81.70
12726;DHT22;6427;49.754;6.106;2022-07-05T09:08:39;22.70;79.60
12726;DHT22;6427;49.754;6.106;2022-07-05T09:11:07;23.00;76.60
12726;DHT22;6427;49.754;6.106;2022-07-05T09:13:36;23.20;74.00
12726;DHT22;6427;49.754;6.106;2022-07-05T09:16:04;23.40;74.20
12726;DHT22;6427;49.754;6.106;2022-07-05T09:18:51;23.30;74.20
12726;DHT22;6427;49.754;6.106;2022-07-05T09:21:19;23.30;73.00
12726;DHT22;6427;49.754;6.106;2022-07-05T09:24:02;23.20;72.90
12726;DHT22;6427;49.754;6.106;2022-07-05T09:28:58;23.30;72.50
12726;DHT22;6427;49.754;6.106;2022-07-05T09:31:30;23.50;71.20
12726;DHT22;6427;49.754;6.106;2022-07-05T09:34:07;23.40;70.60
12726;DHT22;6427;49.754;6.106;2022-07-05T09:36:24;23.50;68.40
12726;DHT22;6427;49.754;6.106;2022-07-05T09:38:52;23.50;68.60
12726;DHT22;6427;49.754;6.106;2022-07-05T09:41:19;23.60;68.50
12726;DHT22;6427;49.754;6.106;2022-07-05T09:43:48;23.60;68.70
12726;DHT22;6427;49.754;6.106;2022-07-05T09:46:16;23.70;67.50
12726;DHT22;6427;49.754;6.106;2022-07-05T09:48:50;23.70;67.50
12726;DHT22;6427;49.754;6.106;2022-07-05T09:51:11;23.80;67.60
12726;DHT22;6427;49.754;6.106;2022-07-05T09:53:52;23.90;65.80
12726;DHT22;6427;49.754;6.106;2022-07-05T09:56:20;24.00;65.40
12726;DHT22;6427;49.754;6.106;2022-07-05T09:58:47;24.00;64.50
12726;DHT22;6427;49.754;6.106;2022-07-05T10:01:28;24.40;62.50
12726;DHT22;6427;49.754;6.106;2022-07-05T10:04:00;24.30;62.50
12726;DHT22;6427;49.754;6.106;2022-07-05T10:06:23;24.30;62.20
12726;DHT22;6427;49.754;6.106;2022-07-05T10:08:52;24.40;61.60
12726;DHT22;6427;49.754;6.106;2022-07-05T10:11:22;24.40;61.60
12726;DHT22;6427;49.754;6.106;2022-07-05T10:13:50;24.50;60.70
12726;DHT22;6427;49.754;6.106;2022-07-05T10:16:19;24.50;60.20
12726;DHT22;6427;49.754;6.106;2022-07-05T10:18:47;24.50;60.10
12726;DHT22;6427;49.754;6.106;2022-07-05T10:21:14;24.60;59.80
12726;DHT22;6427;49.754;6.106;2022-07-05T10:23:47;24.80;58.80
12726;DHT22;6427;49.754;6.106;2022-07-05T10:26:15;24.80;57.50
12726;DHT22;6427;49.754;6.106;2022-07-05T10:28:45;25.00;56.40
12726;DHT22;6427;49.754;6.106;2022-07-05T10:31:12;25.20;56.50
12726;DHT22;6427;49.754;6.106;2022-07-05T10:33:39;25.20;56.40
12726;DHT22;6427;49.754;6.106;2022-07-05T10:36:07;25.10;56.50
12726;DHT22;6427;49.754;6.106;2022-07-05T10:38:35;25.20;55.50
12726;DHT22;6427;49.754;6.106;2022-07-05T10:41:03;25.20;56.40
12726;DHT22;6427;49.754;6.106;2022-07-05T10:43:30;25.20;56.70
12726;DHT22;6427;49.754;6.106;2022-07-05T10:45:57;25.30;55.60
12726;DHT22;6427;49.754;6.106;2022-07-05T10:48:25;25.50;56.60
12726;DHT22;6427;49.754;6.106;2022-07-05T10:50:56;25.50;56.30
12726;DHT22;6427;49.754;6.106;2022-07-05T10:53:29;25.50;56.20
12726;DHT22;6427;49.754;6.106;2022-07-05T10:58:39;25.50;54.70
12726;DHT22;6427;49.754;6.106;2022-07-05T11:03:55;25.50;54.40
12726;DHT22;6427;49.754;6.106;2022-07-05T11:06:25;25.50;54.40
12726;DHT22;6427;49.754;6.106;2022-07-05T11:11:27;25.80;53.00
12726;DHT22;6427;49.754;6.106;2022-07-05T11:13:54;25.90;53.10
12726;DHT22;6427;49.754;6.106;2022-07-05T11:16:25;26.00;53.20
12726;DHT22;6427;49.754;6.106;2022-07-05T11:19:11;25.90;52.20
12726;DHT22;6427;49.754;6.106;2022-07-05T11:21:39;25.90;52.00
12726;DHT22;6427;49.754;6.106;2022-07-05T11:24:19;25.90;52.00
12726;DHT22;6427;49.754;6.106;2022-07-05T11:26:50;26.00;52.10
12726;DHT22;6427;49.754;6.106;2022-07-05T11:29:44;26.10;50.80
12726;DHT22;6427;49.754;6.106;2022-07-05T11:32:12;26.20;50.70
12726;DHT22;6427;49.754;6.106;2022-07-05T11:34:40;26.10;49.10
12726;DHT22;6427;49.754;6.106;2022-07-05T11:39:41;26.00;49.40
12726;DHT22;6427;49.754;6.106;2022-07-05T11:42:09;26.00;50.20
12726;DHT22;6427;49.754;6.106;2022-07-05T11:44:36;26.10;50.10
12726;DHT22;6427;49.754;6.106;2022-07-05T11:47:04;26.10;49.60
12726;DHT22;6427;49.754;6.106;2022-07-05T11:49:32;26.20;50.20
12726;DHT22;6427;49.754;6.106;2022-07-05T11:51:59;26.20;49.50
12726;DHT22;6427;49.754;6.106;2022-07-05T11:54:28;26.20;49.20
12726;DHT22;6427;49.754;6.106;2022-07-05T11:56:54;26.20;49.70
12726;DHT22;6427;49.754;6.106;2022-07-05T11:59:23;26.40;50.00
12726;DHT22;6427;49.754;6.106;2022-07-05T12:01:50;26.40;49.90
12726;DHT22;6427;49.754;6.106;2022-07-05T12:04:21;26.40;49.50
12726;DHT22;6427;49.754;6.106;2022-07-05T12:06:48;26.30;48.90
12726;DHT22;6427;49.754;6.106;2022-07-05T12:09:21;26.30;48.60
12726;DHT22;6427;49.754;6.106;2022-07-05T12:11:49;26.40;47.30
12726;DHT22;6427;49.754;6.106;2022-07-05T12:14:29;26.40;47.30
12726;DHT22;6427;49.754;6.106;2022-07-05T12:17:17;26.30;46.50
12726;DHT22;6427;49.754;6.106;2022-07-05T12:19:47;26.30;46.60
12726;DHT22;6427;49.754;6.106;2022-07-05T12:22:15;26.30;46.60
12726;DHT22;6427;49.754;6.106;2022-07-05T12:24:43;26.40;47.50
12726;DHT22;6427;49.754;6.106;2022-07-05T12:27:11;26.30;47.50
12726;DHT22;6427;49.754;6.106;2022-07-05T12:29:39;26.20;47.30
12726;DHT22;6427;49.754;6.106;2022-07-05T12:32:07;26.20;47.30
12726;DHT22;6427;49.754;6.106;2022-07-05T12:34:34;26.10;47.40
12726;DHT22;6427;49.754;6.106;2022-07-05T12:37:02;26.20;47.60
12726;DHT22;6427;49.754;6.106;2022-07-05T12:39:30;26.30;47.90
12726;DHT22;6427;49.754;6.106;2022-07-05T12:41:58;26.40;46.90
12726;DHT22;6427;49.754;6.106;2022-07-05T12:44:26;26.30;46.70
12726;DHT22;6427;49.754;6.106;2022-07-05T12:47:02;26.40;46.80
12726;DHT22;6427;49.754;6.106;2022-07-05T12:49:21;26.40;46.50
12726;DHT22;6427;49.754;6.106;2022-07-05T12:51:50;26.70;45.30
12726;DHT22;6427;49.754;6.106;2022-07-05T12:54:21;26.70;45.30
12726;DHT22;6427;49.754;6.106;2022-07-05T12:57:06;26.60;45.20
12726;DHT22;6427;49.754;6.106;2022-07-05T13:00:05;26.60;45.70
12726;DHT22;6427;49.754;6.106;2022-07-05T13:02:35;26.70;44.40
12726;DHT22;6427;49.754;6.106;2022-07-05T13:05:03;26.40;44.40
12726;DHT22;6427;49.754;6.106;2022-07-05T13:07:30;26.40;44.40
12726;DHT22;6427;49.754;6.106;2022-07-05T13:10:12;26.40;44.60
12726;DHT22;6427;49.754;6.106;2022-07-05T13:12:26;26.40;43.90
12726;DHT22;6427;49.754;6.106;2022-07-05T13:14:53;26.30;43.80
12726;DHT22;6427;49.754;6.106;2022-07-05T13:17:22;26.20;44.50
12726;DHT22;6427;49.754;6.106;2022-07-05T13:19:50;26.20;44.50
12726;DHT22;6427;49.754;6.106;2022-07-05T13:22:18;26.40;44.50
12726;DHT22;6427;49.754;6.106;2022-07-05T13:24:46;26.50;43.90
12726;DHT22;6427;49.754;6.106;2022-07-05T13:27:13;26.40;43.80
12726;DHT22;6427;49.754;6.106;2022-07-05T13:29:41;26.60;43.90
12726;DHT22;6427;49.754;6.106;2022-07-05T13:32:09;26.80;42.60
12726;DHT22;6427;49.754;6.106;2022-07-05T13:34:36;26.90;42.00
12726;DHT22;6427;49.754;6.106;2022-07-05T13:37:04;26.80;42.20
12726;DHT22;6427;49.754;6.106;2022-07-05T13:39:31;26.70;42.50
12726;DHT22;6427;49.754;6.106;2022-07-05T13:41:59;26.70;42.70
12726;DHT22;6427;49.754;6.106;2022-07-05T13:44:26;26.70;43.00
12726;DHT22;6427;49.754;6.106;2022-07-05T13:46:54;26.80;42.80
12726;DHT22;6427;49.754;6.106;2022-07-05T13:49:22;26.90;43.40
12726;DHT22;6427;49.754;6.106;2022-07-05T13:51:49;27.00;42.90
12726;DHT22;6427;49.754;6.106;2022-07-05T13:54:17;27.10;43.00
12726;DHT22;6427;49.754;6.106;2022-07-05T13:56:45;27.10;42.40
12726;DHT22;6427;49.754;6.106;2022-07-05T13:59:12;27.20;42.60
12726;DHT22;6427;49.754;6.106;2022-07-05T14:01:40;27.20;42.50
12726;DHT22;6427;49.754;6.106;2022-07-05T14:04:07;27.20;42.80
12726;DHT22;6427;49.754;6.106;2022-07-05T14:06:35;27.10;42.70
12726;DHT22;6427;49.754;6.106;2022-07-05T14:09:03;27.10;42.90
12726;DHT22;6427;49.754;6.106;2022-07-05T14:11:30;27.00;43.10
12726;DHT22;6427;49.754;6.106;2022-07-05T14:13:58;27.10;43.60
12726;DHT22;6427;49.754;6.106;2022-07-05T14:16:26;27.30;43.00
12726;DHT22;6427;49.754;6.106;2022-07-05T14:18:54;27.30;43.00
12726;DHT22;6427;49.754;6.106;2022-07-05T14:21:21;27.40;42.70
12726;DHT22;6427;49.754;6.106;2022-07-05T14:23:49;27.60;42.20
12726;DHT22;6427;49.754;6.106;2022-07-05T14:26:17;27.90;41.90
12726;DHT22;6427;49.754;6.106;2022-07-05T14:28:45;27.90;41.20
12726;DHT22;6427;49.754;6.106;2022-07-05T14:31:12;28.00;41.20
12726;DHT22;6427;49.754;6.106;2022-07-05T14:33:40;28.30;40.90
12726;DHT22;6427;49.754;6.106;2022-07-05T14:36:08;28.40;41.20
12726;DHT22;6427;49.754;6.106;2022-07-05T14:38:36;28.50;41.10
12726;DHT22;6427;49.754;6.106;2022-07-05T14:41:04;29.00;40.60
12726;DHT22;6427;49.754;6.106;2022-07-05T14:43:32;28.90;40.40
12726;DHT22;6427;49.754;6.106;2022-07-05T14:46:00;29.10;40.00
12726;DHT22;6427;49.754;6.106;2022-07-05T14:48:27;29.10;40.00
12726;DHT22;6427;49.754;6.106;2022-07-05T14:50:55;29.30;40.00
12726;DHT22;6427;49.754;6.106;2022-07-05T14:53:23;29.30;40.00
12726;DHT22;6427;49.754;6.106;2022-07-05T14:55:51;29.30;39.70
12726;DHT22;6427;49.754;6.106;2022-07-05T14:58:18;29.40;39.60
12726;DHT22;6427;49.754;6.106;2022-07-05T15:00:46;29.40;39.10
12726;DHT22;6427;49.754;6.106;2022-07-05T15:03:14;29.50;37.50
12726;DHT22;6427;49.754;6.106;2022-07-05T15:05:43;29.40;37.70
12726;DHT22;6427;49.754;6.106;2022-07-05T15:08:11;29.20;39.10
12726;DHT22;6427;49.754;6.106;2022-07-05T15:10:39;29.20;38.40
12726;DHT22;6427;49.754;6.106;2022-07-05T15:13:06;29.20;38.70
12726;DHT22;6427;49.754;6.106;2022-07-05T15:15:34;29.10;39.00
12726;DHT22;6427;49.754;6.106;2022-07-05T15:18:01;29.20;38.60
12726;DHT22;6427;49.754;6.106;2022-07-05T15:20:29;29.20;38.90
12726;DHT22;6427;49.754;6.106;2022-07-05T15:22:57;29.30;38.70
12726;DHT22;6427;49.754;6.106;2022-07-05T15:25:25;29.60;37.50
12726;DHT22;6427;49.754;6.106;2022-07-05T15:27:53;29.60;37.50
12726;DHT22;6427;49.754;6.106;2022-07-05T15:30:20;29.70;37.50
12726;DHT22;6427;49.754;6.106;2022-07-05T15:32:48;29.70;37.60
12726;DHT22;6427;49.754;6.106;2022-07-05T15:35:16;29.80;38.50
12726;DHT22;6427;49.754;6.106;2022-07-05T15:37:44;29.80;38.20
12726;DHT22;6427;49.754;6.106;2022-07-05T15:40:11;29.90;37.90
12726;DHT22;6427;49.754;6.106;2022-07-05T15:42:40;29.90;38.20
12726;DHT22;6427;49.754;6.106;2022-07-05T15:45:08;29.80;37.90
12726;DHT22;6427;49.754;6.106;2022-07-05T15:47:36;29.80;37.90
12726;DHT22;6427;49.754;6.106;2022-07-05T15:50:04;29.70;37.70
12726;DHT22;6427;49.754;6.106;2022-07-05T15:52:31;29.50;38.00
12726;DHT22;6427;49.754;6.106;2022-07-05T15:54:59;29.30;38.30
12726;DHT22;6427;49.754;6.106;2022-07-05T15:57:27;29.30;38.30
12726;DHT22;6427;49.754;6.106;2022-07-05T15:59:55;29.40;38.30
12726;DHT22;6427;49.754;6.106;2022-07-05T16:02:23;29.60;37.50
12726;DHT22;6427;49.754;6.106;2022-07-05T16:04:50;29.70;37.80